Time;durP1;ratioP1;P1;durP2;ratioP2;P2;SDS_P1;SDS_P2;PMS_P1;PMS_P2;Temp;Humidity;BMP_temperature;BMP_pressure;BME280_temperature;BME280_humidity;BME280_pressure;Samples;Min_cycle;Max_cycle;Signal;HPM_P1;HPM_P2
2023/05/06 00:00:18;;;;;;;;;;;;;;;23.55;49.23;97161.66;630633;224;65014;-59
2023/05/06 00:02:46;;;;;;;;;;;;;;;23.55;49.61;97167.82;630670;225;62988;-59
2023/05/06 00:05:13;;;;;;;;;;;;;;;23.54;49.31;97160.84;630733;225;65896;-59
2023/05/06 00:07:41;;;;;;;;;;;;;;;23.54;50.32;97146.63;630688;225;63193;-59
2023/05/06 00:10:09;;;;;;;;;;;;;;;23.52;48.89;97146.93;630664;224;63165;-59
2023/05/06 00:12:36;;;;;;;;;;;;;;;23.52;49.45;97149.61;630655;225;65368;-59
2023/05/06 00:15:04;;;;;;;;;;;;;;;23.52;47.83;97159.52;630671;225;65291;-59
2023/05/06 00:17:31;;;;;;;;;;;;;;;23.52;48.90;97154.16;630751;225;65036;-59
2023/05/06 00:19:59;;;;;;;;;;;;;;;23.52;50.05;97148.79;630729;225;65171;-61
2023/05/06 00:22:27;;;;;;;;;;;;;;;23.50;48.58;97146.41;630733;225;63720;-61
2023/05/06 00:24:54;;;;;;;;;;;;;;;23.50;50.03;97146.41;630707;225;62913;-61
2023/05/06 00:27:22;;;;;;;;;;;;;;;23.49;49.91;97152.87;630663;225;62906;-61
2023/05/06 00:29:50;;;;;;;;;;;;;;;23.49;48.49;97158.23;630757;225;65217;-61
2023/05/06 00:32:17;;;;;;;;;;;;;;;23.49;50.24;97159.02;630700;225;69402;-61
2023/05/06 00:34:44;;;;;;;;;;;;;;;23.48;49.74;97151.25;630736;225;65090;-61
2023/05/06 00:37:12;;;;;;;;;;;;;;;23.47;48.83;97155.02;630714;225;64782;-59
2023/05/06 00:39:39;;;;;;;;;;;;;;;23.47;49.98;97153.14;630658;225;63062;-59
2023/05/06 00:42:07;;;;;;;;;;;;;;;23.47;48.99;97160.39;630664;225;64925;-59
2023/05/06 00:44:34;;;;;;;;;;;;;;;23.47;50.82;97163.07;630775;225;64875;-59
2023/05/06 00:47:02;;;;;;;;;;;;;;;23.46;50.80;97159.59;630687;225;62967;-59
2023/05/06 00:49:29;;;;;;;;;;;;;;;23.46;49.47;97158.77;630699;225;64057;-61
2023/05/06 00:51:58;;;;;;;;;;;;;;;23.47;50.62;97155.02;630689;225;63477;-61
2023/05/06 00:54:26;;;;;;;;;;;;;;;23.46;48.72;97148.05;630730;225;65296;-61
2023/05/06 00:56:54;;;;;;;;;;;;;;;23.45;50.15;97147.25;630735;225;65598;-63
2023/05/06 00:59:22;;;;;;;;;;;;;;;23.46;49.63;97142.68;630751;225;62952;-61
2023/05/06 01:01:51;;;;;;;;;;;;;;;23.46;50.02;97154.23;630673;225;65754;-61
2023/05/06 01:04:18;;;;;;;;;;;;;;;23.45;48.72;97157.19;630720;225;65112;-61
2023/05/06 01:07:00;;;;;;;;;;;;;;;23.45;47.98;97154.50;630681;225;65142;-61
2023/05/06 01:09:29;;;;;;;;;;;;;;;23.46;49.07;97158.77;631238;224;64976;-60
2023/05/06 01:11:58;;;;;;;;;;;;;;;23.46;48.85;97153.41;632914;224;65281;-60
2023/05/06 01:14:45;;;;;;;;;;;;;;;23.45;49.93;97157.98;632948;224;64961;-60
2023/05/06 01:17:14;;;;;;;;;;;;;;;23.45;49.03;97151.82;632876;224;64844;-60
2023/05/06 01:19:47;;;;;;;;;;;;;;;23.45;50.81;97157.19;632922;224;66249;-58
2023/05/06 01:22:16;;;;;;;;;;;;;;;23.45;49.26;97152.61;632931;224;63074;-59
2023/05/06 01:24:44;;;;;;;;;;;;;;;23.44;50.07;97139.50;632951;224;62756;-59
2023/05/06 01:27:12;;;;;;;;;;;;;;;23.44;50.01;97147.55;632954;224;65817;-59
2023/05/06 01:29:42;;;;;;;;;;;;;;;23.43;48.79;97143.25;632896;224;65023;-61
2023/05/06 01:32:11;;;;;;;;;;;;;;;23.44;48.67;97139.50;632785;224;62640;-61
2023/05/06 01:34:40;;;;;;;;;;;;;;;23.44;49.48;97139.50;632799;224;65974;-61
2023/05/06 01:37:18;;;;;;;;;;;;;;;23.45;50.67;97138.41;632705;224;66950;-61
2023/05/06 01:39:47;;;;;;;;;;;;;;;23.44;49.83;97134.14;632750;224;64998;-62
2023/05/06 01:42:15;;;;;;;;;;;;;;;23.43;51.05;97136.00;632740;224;65198;-60
2023/05/06 01:44:43;;;;;;;;;;;;;;;23.44;51.67;97128.77;632771;224;64750;-58
2023/05/06 01:47:11;;;;;;;;;;;;;;;23.43;50.43;97137.89;632765;224;65038;-58
2023/05/06 01:49:39;;;;;;;;;;;;;;;23.42;49.88;97126.36;632772;224;67107;-58
2023/05/06 01:52:07;;;;;;;;;;;;;;;23.42;49.88;97129.05;632853;224;66848;-58
2023/05/06 01:54:34;;;;;;;;;;;;;;;23.43;49.81;97119.11;632735;224;65198;-58
2023/05/06 01:57:02;;;;;;;;;;;;;;;23.43;48.78;97132.52;632769;224;67309;-58
2023/05/06 01:59:30;;;;;;;;;;;;;;;23.42;48.52;97120.20;632809;224;67116;-58
2023/05/06 02:01:57;;;;;;;;;;;;;;;23.43;49.06;97119.11;632776;224;64874;-60
2023/05/06 02:04:24;;;;;;;;;;;;;;;23.42;49.64;97118.31;632781;224;64776;-60
2023/05/06 02:06:52;;;;;;;;;;;;;;;23.43;49.96;97116.43;632811;224;68423;-58
2023/05/06 02:09:20;;;;;;;;;;;;;;;23.42;48.47;97117.52;632701;223;65679;-59
2023/05/06 02:11:49;;;;;;;;;;;;;;;23.41;49.15;97119.41;632620;224;45750;-58
2023/05/06 02:14:16;;;;;;;;;;;;;;;23.42;50.21;97117.52;632791;224;66899;-58
2023/05/06 02:16:44;;;;;;;;;;;;;;;23.42;50.44;97131.73;632768;224;64893;-58
2023/05/06 02:19:11;;;;;;;;;;;;;;;23.42;49.69;97121.00;632819;224;67227;-58
2023/05/06 02:21:39;;;;;;;;;;;;;;;23.41;50.67;97132.83;632746;224;67048;-60
2023/05/06 02:24:08;;;;;;;;;;;;;;;23.41;48.51;97126.66;632789;224;63759;-60
2023/05/06 02:26:36;;;;;;;;;;;;;;;23.42;50.63;97133.62;632790;224;66920;-60
2023/05/06 02:29:04;;;;;;;;;;;;;;;23.42;50.54;97130.94;632760;224;67465;-59
2023/05/06 02:31:31;;;;;;;;;;;;;;;23.40;48.78;97117.00;632802;224;62693;-59
2023/05/06 02:33:59;;;;;;;;;;;;;;;23.40;51.10;97122.36;632767;224;67372;-58
2023/05/06 02:36:26;;;;;;;;;;;;;;;23.39;50.54;97128.83;632757;224;66818;-59
2023/05/06 02:38:54;;;;;;;;;;;;;;;23.39;51.23;97132.30;632769;224;62505;-59
2023/05/06 02:41:22;;;;;;;;;;;;;;;23.40;51.11;97138.45;632768;224;64819;-59
2023/05/06 02:43:49;;;;;;;;;;;;;;;23.39;50.33;97126.94;632843;224;66839;-58
2023/05/06 02:46:17;;;;;;;;;;;;;;;23.40;50.49;97143.82;632771;224;64925;-58
2023/05/06 02:48:45;;;;;;;;;;;;;;;23.38;50.13;97143.30;632743;224;64563;-59
2023/05/06 02:51:13;;;;;;;;;;;;;;;23.39;50.62;97142.23;632761;224;64740;-59
2023/05/06 02:53:40;;;;;;;;;;;;;;;23.37;51.17;97144.39;632775;224;65229;-59
2023/05/06 02:56:08;;;;;;;;;;;;;;;23.38;49.65;97145.98;632788;224;67050;-59
2023/05/06 02:58:35;;;;;;;;;;;;;;;23.37;49.98;97145.19;632769;224;66952;-59
2023/05/06 03:01:03;;;;;;;;;;;;;;;23.36;51.20;97138.23;632763;224;65285;-58
2023/05/06 03:03:30;;;;;;;;;;;;;;;23.37;48.70;97136.34;632742;224;68760;-59
2023/05/06 03:05:57;;;;;;;;;;;;;;;23.38;51.52;97143.30;632765;224;64808;-58
2023/05/06 03:08:25;;;;;;;;;;;;;;;23.36;51.17;97146.28;632759;224;65770;-58
2023/05/06 03:10:54;;;;;;;;;;;;;;;23.36;51.08;97145.48;632723;224;67979;-60
2023/05/06 03:13:21;;;;;;;;;;;;;;;23.36;51.24;97142.80;632793;224;64366;-60
2023/05/06 03:15:55;;;;;;;;;;;;;;;23.36;50.84;97156.21;632740;224;62736;-61
2023/05/06 03:18:23;;;;;;;;;;;;;;;23.35;51.40;97146.55;632751;224;67242;-60
2023/05/06 03:20:51;;;;;;;;;;;;;;;23.35;50.53;97151.91;632760;224;67349;-61
2023/05/06 03:23:18;;;;;;;;;;;;;;;23.34;51.94;97151.11;632821;224;66091;-61
2023/05/06 03:25:46;;;;;;;;;;;;;;;23.34;51.38;97144.95;632750;224;65138;-61
2023/05/06 03:28:14;;;;;;;;;;;;;;;23.33;50.90;97154.09;632756;224;67472;-60
2023/05/06 03:30:42;;;;;;;;;;;;;;;23.33;50.82;97154.09;632760;224;65566;-60
2023/05/06 03:33:09;;;;;;;;;;;;;;;23.32;51.34;97150.59;632753;224;67921;-60
2023/05/06 03:35:37;;;;;;;;;;;;;;;23.32;51.53;97149.80;632817;224;66508;-61
2023/05/06 03:38:04;;;;;;;;;;;;;;;23.32;51.46;97155.95;632760;224;65176;-61
2023/05/06 03:40:34;;;;;;;;;;;;;;;23.31;51.68;97162.41;632366;224;49059;-60
2023/05/06 03:43:02;;;;;;;;;;;;;;;23.30;50.77;97160.83;632736;224;65671;-60
2023/05/06 03:45:29;;;;;;;;;;;;;;;23.31;50.89;97166.98;632765;224;63693;-60
2023/05/06 03:47:57;;;;;;;;;;;;;;;23.30;50.51;97165.36;632797;224;67343;-61
2023/05/06 03:50:25;;;;;;;;;;;;;;;23.30;51.89;97163.50;632774;224;64536;-60
2023/05/06 03:52:53;;;;;;;;;;;;;;;23.29;51.86;97164.56;632754;224;65914;-61
2023/05/06 03:55:22;;;;;;;;;;;;;;;23.29;51.65;97177.18;632719;224;65756;-60
2023/05/06 03:57:49;;;;;;;;;;;;;;;23.28;50.79;97171.02;632773;224;64908;-60
2023/05/06 04:00:19;;;;;;;;;;;;;;;23.28;49.79;97178.27;632775;224;64935;-63
2023/05/06 04:02:47;;;;;;;;;;;;;;;23.27;51.12;97185.49;625874;224;66950;-63
2023/05/06 04:05:16;;;;;;;;;;;;;;;23.26;50.73;97182.02;632595;224;44260;-60
2023/05/06 04:07:44;;;;;;;;;;;;;;;23.27;52.19;97188.17;632736;224;63708;-61
2023/05/06 04:10:11;;;;;;;;;;;;;;;23.26;52.65;97189.27;631330;224;67040;-60
2023/05/06 04:12:39;;;;;;;;;;;;;;;23.26;52.62;97186.59;630576;225;67002;-60
2023/05/06 04:15:07;;;;;;;;;;;;;;;23.25;50.97;97180.43;630580;225;63615;-58
2023/05/06 04:17:35;;;;;;;;;;;;;;;23.25;51.65;97188.47;630520;225;64538;-59
2023/05/06 04:20:05;;;;;;;;;;;;;;;23.24;50.58;97189.56;630538;225;66881;-59
2023/05/06 04:22:33;;;;;;;;;;;;;;;23.25;52.57;97196.52;630503;225;65508;-59
2023/05/06 04:25:00;;;;;;;;;;;;;;;23.22;52.63;97194.40;630530;225;67980;-59
2023/05/06 04:27:30;;;;;;;;;;;;;;;23.22;52.70;97197.08;630634;225;66371;-59
2023/05/06 04:29:58;;;;;;;;;;;;;;;23.23;52.31;97197.88;630563;225;65037;-58
2023/05/06 04:32:27;;;;;;;;;;;;;;;23.22;52.07;97197.08;630531;225;64308;-59
2023/05/06 04:34:55;;;;;;;;;;;;;;;23.21;52.11;97200.83;630487;225;64408;-60
2023/05/06 04:37:23;;;;;;;;;;;;;;;23.21;53.11;97198.14;630553;225;65607;-63
2023/05/06 04:39:57;;;;;;;;;;;;;;;23.20;51.24;97199.23;630324;225;44068;-61
2023/05/06 04:42:25;;;;;;;;;;;;;;;23.20;52.00;97203.80;630607;225;66715;-63
2023/05/06 04:44:54;;;;;;;;;;;;;;;23.20;53.24;97198.44;630327;224;41536;-62
2023/05/06 04:47:23;;;;;;;;;;;;;;;23.18;52.38;97196.03;630490;224;45506;-63
2023/05/06 04:49:51;;;;;;;;;;;;;;;23.18;51.52;97198.70;630529;225;67520;-61
2023/05/06 04:52:19;;;;;;;;;;;;;;;23.18;52.49;97196.03;625333;225;64053;-62
2023/05/06 04:54:47;;;;;;;;;;;;;;;23.18;52.04;97196.03;630554;225;66747;-61
2023/05/06 04:57:14;;;;;;;;;;;;;;;23.17;53.08;97202.48;630585;225;67057;-61
2023/05/06 04:59:43;;;;;;;;;;;;;;;23.16;52.47;97198.21;630491;225;63607;-60
2023/05/06 05:02:13;;;;;;;;;;;;;;;23.16;51.85;97202.75;630490;225;67875;-59
2023/05/06 05:04:41;;;;;;;;;;;;;;;23.15;51.97;97212.67;630547;225;67557;-59
2023/05/06 05:07:09;;;;;;;;;;;;;;;23.15;51.58;97201.95;630526;225;64515;-59
2023/05/06 05:09:37;;;;;;;;;;;;;;;23.15;52.92;97209.20;630509;224;64858;-60
2023/05/06 05:12:04;;;;;;;;;;;;;;;23.13;52.12;97201.42;630531;225;67481;-60
2023/05/06 05:14:33;;;;;;;;;;;;;;;23.13;53.22;97204.11;630585;225;43268;-60
2023/05/06 05:17:01;;;;;;;;;;;;;;;23.14;52.07;97212.97;630530;225;67003;-61
2023/05/06 05:19:29;;;;;;;;;;;;;;;23.13;52.44;97209.47;630544;225;64973;-62
2023/05/06 05:21:56;;;;;;;;;;;;;;;23.12;51.53;97207.88;630580;225;62179;-61
2023/05/06 05:24:25;;;;;;;;;;;;;;;23.13;52.73;97214.03;630498;225;67043;-61
2023/05/06 05:26:52;;;;;;;;;;;;;;;23.12;53.28;97217.80;630528;225;65782;-61
2023/05/06 05:29:20;;;;;;;;;;;;;;;23.12;52.21;97226.64;630526;225;63091;-62
2023/05/06 05:31:48;;;;;;;;;;;;;;;23.11;52.26;97217.02;630438;225;65669;-61
2023/05/06 05:34:15;;;;;;;;;;;;;;;23.11;52.29;97225.05;630609;225;67466;-62
2023/05/06 05:36:44;;;;;;;;;;;;;;;23.11;52.67;97227.73;630471;225;65729;-61
2023/05/06 05:39:12;;;;;;;;;;;;;;;23.11;52.07;97233.09;630554;225;65669;-62
2023/05/06 05:41:41;;;;;;;;;;;;;;;23.12;51.64;97228.53;630246;224;45353;-62
2023/05/06 05:44:09;;;;;;;;;;;;;;;23.12;50.62;97223.96;630569;225;65196;-62
2023/05/06 05:46:38;;;;;;;;;;;;;;;23.13;51.81;97216.72;630560;224;65678;-63
2023/05/06 05:49:06;;;;;;;;;;;;;;;23.13;50.46;97227.44;630075;225;67652;-62
2023/05/06 05:51:33;;;;;;;;;;;;;;;23.14;52.49;97237.89;630548;225;62384;-62
2023/05/06 05:54:03;;;;;;;;;;;;;;;23.14;51.23;97232.53;630545;225;67823;-63
2023/05/06 05:56:31;;;;;;;;;;;;;;;23.15;51.71;97227.97;630557;225;64919;-62
2023/05/06 05:58:59;;;;;;;;;;;;;;;23.14;51.62;97221.81;630557;225;62378;-62
2023/05/06 06:01:33;;;;;;;;;;;;;;;23.16;51.21;97230.38;630622;225;64855;-62
2023/05/06 06:04:00;;;;;;;;;;;;;;;23.18;51.07;97233.56;630565;225;67052;-62
2023/05/06 06:06:28;;;;;;;;;;;;;;;23.18;51.05;97222.05;630576;225;65831;-62
2023/05/06 06:08:55;;;;;;;;;;;;;;;23.17;50.71;97231.97;630697;224;66913;-62
2023/05/06 06:11:25;;;;;;;;;;;;;;;23.19;50.79;97234.36;632786;224;64431;-62
2023/05/06 06:13:53;;;;;;;;;;;;;;;23.18;51.89;97230.88;632785;224;63852;-61
2023/05/06 06:16:21;;;;;;;;;;;;;;;23.19;49.79;97232.50;632772;224;67247;-61
2023/05/06 06:18:49;;;;;;;;;;;;;;;23.20;49.74;97236.77;632810;224;67323;-61
2023/05/06 06:21:16;;;;;;;;;;;;;;;23.23;52.30;97227.37;632725;224;64848;-61
2023/05/06 06:23:44;;;;;;;;;;;;;;;23.23;52.38;97230.84;632767;224;65029;-62
2023/05/06 06:26:13;;;;;;;;;;;;;;;23.24;50.66;97224.42;632779;224;67839;-62
2023/05/06 06:28:41;;;;;;;;;;;;;;;23.26;52.56;97218.77;632830;224;62639;-62
2023/05/06 06:31:08;;;;;;;;;;;;;;;23.27;51.93;97228.39;632813;224;67206;-62
2023/05/06 06:33:36;;;;;;;;;;;;;;;23.28;53.25;97226.54;632740;224;67127;-62
2023/05/06 06:36:03;;;;;;;;;;;;;;;23.29;52.85;97220.08;632745;224;66093;-61
2023/05/06 06:38:31;;;;;;;;;;;;;;;23.29;53.57;97223.56;632794;223;67109;-63
2023/05/06 06:40:58;;;;;;;;;;;;;;;23.30;52.82;97224.35;632806;224;67016;-61
2023/05/06 06:43:29;;;;;;;;;;;;;;;23.31;53.96;97220.61;632772;224;63975;-63
2023/05/06 06:45:58;;;;;;;;;;;;;;;23.32;53.84;97223.00;632716;224;46303;-63
2023/05/06 06:48:25;;;;;;;;;;;;;;;23.34;54.27;97222.72;632731;224;67020;-61
2023/05/06 06:50:53;;;;;;;;;;;;;;;23.33;54.52;97221.14;632771;224;65040;-61
2023/05/06 06:53:20;;;;;;;;;;;;;;;23.35;53.46;97217.06;632817;224;67048;-61
2023/05/06 06:55:48;;;;;;;;;;;;;;;23.36;53.75;97224.05;632812;224;65368;-62
2023/05/06 06:58:16;;;;;;;;;;;;;;;23.37;54.19;97225.64;632757;224;62679;-62
2023/05/06 07:00:43;;;;;;;;;;;;;;;23.37;53.89;97230.20;632771;224;67928;-61
2023/05/06 07:03:14;;;;;;;;;;;;;;;23.37;53.61;97228.32;632741;224;67045;-61
2023/05/06 07:05:40;;;;;;;;;;;;;;;23.38;53.76;97235.30;632724;224;64643;-59
2023/05/06 07:08:08;;;;;;;;;;;;;;;23.39;53.47;97228.05;632766;224;64873;-59
2023/05/06 07:10:35;;;;;;;;;;;;;;;23.40;53.32;97235.80;632724;224;64768;-59
2023/05/06 07:13:03;;;;;;;;;;;;;;;23.42;52.01;97235.53;632749;224;63165;-59
2023/05/06 07:15:30;;;;;;;;;;;;;;;23.43;53.11;97234.44;632749;224;67228;-58
2023/05/06 07:17:58;;;;;;;;;;;;;;;23.43;53.93;97234.44;632753;224;67036;-59
2023/05/06 07:20:25;;;;;;;;;;;;;;;23.45;53.70;97245.69;632821;224;63857;-60
2023/05/06 07:22:53;;;;;;;;;;;;;;;23.45;53.45;97237.64;632769;224;66832;-60
2023/05/06 07:25:23;;;;;;;;;;;;;;;23.46;52.79;97250.79;632766;223;64998;-60
2023/05/06 07:27:52;;;;;;;;;;;;;;;23.47;54.14;97246.22;632715;224;65174;-60
2023/05/06 07:30:19;;;;;;;;;;;;;;;23.47;53.64;97243.54;632770;224;67298;-61
2023/05/06 07:32:47;;;;;;;;;;;;;;;23.49;54.54;97244.06;632818;224;66973;-62
2023/05/06 07:35:15;;;;;;;;;;;;;;;23.49;54.61;97244.86;632777;224;63943;-62
2023/05/06 07:37:42;;;;;;;;;;;;;;;23.49;53.50;97249.43;632756;224;65020;-62
2023/05/06 07:40:10;;;;;;;;;;;;;;;23.50;53.08;97253.70;632791;224;65150;-62
2023/05/06 07:42:37;;;;;;;;;;;;;;;23.50;52.97;97245.66;632724;224;64975;-62
2023/05/06 07:45:05;;;;;;;;;;;;;;;23.52;53.04;97251.55;632860;224;67006;-63
2023/05/06 07:47:35;;;;;;;;;;;;;;;23.53;52.61;97252.34;632763;224;67107;-62
2023/05/06 07:50:05;;;;;;;;;;;;;;;23.53;53.81;97250.45;632751;224;65257;-61
2023/05/06 07:52:32;;;;;;;;;;;;;;;23.54;54.08;97252.05;632747;224;67256;-59
2023/05/06 07:54:59;;;;;;;;;;;;;;;23.54;52.45;97253.93;632755;224;66991;-61
2023/05/06 07:57:27;;;;;;;;;;;;;;;23.55;52.70;97253.66;632776;224;65038;-61
2023/05/06 07:59:54;;;;;;;;;;;;;;;23.56;53.03;97260.62;632763;224;64985;-61
2023/05/06 08:02:22;;;;;;;;;;;;;;;23.58;53.57;97261.14;632781;224;67101;-61
2023/05/06 08:04:49;;;;;;;;;;;;;;;23.57;52.19;97251.51;632748;224;64947;-59
2023/05/06 08:07:16;;;;;;;;;;;;;;;23.58;52.85;97258.46;632787;224;64999;-59
2023/05/06 08:09:44;;;;;;;;;;;;;;;23.59;53.16;97257.37;631819;222;66706;-59
2023/05/06 08:12:12;;;;;;;;;;;;;;;23.58;51.74;97253.09;630580;225;64908;-59
2023/05/06 08:14:39;;;;;;;;;;;;;;;23.59;53.61;97249.31;630549;225;66973;-58
2023/05/06 08:17:07;;;;;;;;;;;;;;;23.59;53.66;97243.95;630528;225;67336;-58
2023/05/06 08:19:34;;;;;;;;;;;;;;;23.61;53.11;97259.78;630522;225;65038;-59
2023/05/06 08:22:03;;;;;;;;;;;;;;;23.62;53.79;97254.12;630496;225;67146;-59
2023/05/06 08:24:31;;;;;;;;;;;;;;;23.60;53.24;97245.57;630609;225;67007;-59
2023/05/06 08:26:58;;;;;;;;;;;;;;;23.61;53.63;97252.53;630515;225;65205;-58
2023/05/06 08:29:27;;;;;;;;;;;;;;;23.63;53.09;97247.69;630531;225;67015;-59
2023/05/06 08:31:54;;;;;;;;;;;;;;;23.63;53.71;97246.89;630567;225;64665;-59
2023/05/06 08:34:22;;;;;;;;;;;;;;;23.63;53.03;97250.37;630580;225;62690;-59
2023/05/06 08:36:49;;;;;;;;;;;;;;;23.64;54.13;97246.59;630590;225;66536;-59
2023/05/06 08:39:17;;;;;;;;;;;;;;;23.64;53.22;97245.80;630547;224;64687;-59
2023/05/06 08:41:50;;;;;;;;;;;;;;;23.65;53.84;97247.39;630497;225;63008;-58
2023/05/06 08:44:19;;;;;;;;;;;;;;;23.64;53.53;97245.80;630539;225;67170;-58
2023/05/06 08:46:47;;;;;;;;;;;;;;;23.65;53.32;97248.21;630545;225;66753;-58
2023/05/06 08:49:15;;;;;;;;;;;;;;;23.65;54.29;97239.34;630545;225;65033;-59
2023/05/06 08:51:43;;;;;;;;;;;;;;;23.65;53.18;97248.21;630548;225;64850;-58
2023/05/06 08:54:12;;;;;;;;;;;;;;;23.66;52.03;97246.33;630338;225;64757;-59
2023/05/06 08:56:40;;;;;;;;;;;;;;;23.66;53.79;97249.80;630529;225;62838;-59
2023/05/06 08:59:08;;;;;;;;;;;;;;;23.67;52.90;97245.23;630494;225;69276;-58
2023/05/06 09:01:39;;;;;;;;;;;;;;;23.66;52.15;97243.64;630347;225;64754;-58
2023/05/06 09:04:06;;;;;;;;;;;;;;;23.67;53.29;97242.55;630548;225;65073;-59
2023/05/06 09:06:34;;;;;;;;;;;;;;;23.66;53.08;97244.44;630473;225;67021;-59
2023/05/06 09:09:01;;;;;;;;;;;;;;;23.68;53.37;97249.50;630719;224;65690;-58
2023/05/06 09:11:29;;;;;;;;;;;;;;;23.67;53.83;97246.02;632766;224;62759;-58
2023/05/06 09:14:17;;;;;;;;;;;;;;;23.67;52.24;97245.23;632750;224;67049;-58
2023/05/06 09:16:46;;;;;;;;;;;;;;;23.67;54.20;97240.66;632793;224;64847;-58
2023/05/06 09:19:14;;;;;;;;;;;;;;;23.66;53.08;97241.75;632806;224;65066;-58
2023/05/06 09:21:43;;;;;;;;;;;;;;;23.66;52.98;97239.07;632763;224;64986;-58
2023/05/06 09:24:11;;;;;;;;;;;;;;;23.67;53.79;97232.61;632803;224;64564;-59
2023/05/06 09:26:40;;;;;;;;;;;;;;;23.67;53.44;97229.92;632775;224;64866;-59
2023/05/06 09:29:08;;;;;;;;;;;;;;;23.68;53.73;97228.04;632756;224;67189;-59
2023/05/06 09:31:43;;;;;;;;;;;;;;;23.68;53.80;97228.86;632808;224;67223;-61
2023/05/06 09:34:11;;;;;;;;;;;;;;;23.68;53.50;97226.18;632790;224;65029;-61
2023/05/06 09:36:38;;;;;;;;;;;;;;;23.67;52.66;97229.92;632775;224;67963;-61
2023/05/06 09:39:07;;;;;;;;;;;;;;;23.68;52.94;97228.86;632757;224;66967;-61
2023/05/06 09:41:36;;;;;;;;;;;;;;;23.68;53.40;97228.86;632716;224;62982;-61
2023/05/06 09:44:04;;;;;;;;;;;;;;;23.68;54.13;97223.50;632806;224;67202;-61
2023/05/06 09:46:32;;;;;;;;;;;;;;;23.68;53.06;97215.45;632816;224;67059;-61
2023/05/06 09:49:00;;;;;;;;;;;;;;;23.68;51.50;97214.62;632727;224;64981;-61
2023/05/06 09:51:27;;;;;;;;;;;;;;;23.69;52.27;97222.41;632745;224;64628;-61
2023/05/06 09:53:56;;;;;;;;;;;;;;;23.68;53.37;97214.62;632701;224;64837;-61
2023/05/06 09:56:24;;;;;;;;;;;;;;;23.67;53.43;97211.14;632728;224;65060;-61
2023/05/06 09:58:54;;;;;;;;;;;;;;;23.68;53.27;97220.81;632793;224;65236;-61
2023/05/06 10:01:22;;;;;;;;;;;;;;;23.67;52.30;97208.46;632770;224;67029;-61
2023/05/06 10:03:51;;;;;;;;;;;;;;;23.68;53.21;97207.39;632778;224;64956;-61
2023/05/06 10:06:20;;;;;;;;;;;;;;;23.68;52.62;97196.66;632710;224;64715;-61
2023/05/06 10:08:48;;;;;;;;;;;;;;;23.69;53.89;97189.41;632678;224;65645;-60
2023/05/06 10:11:16;;;;;;;;;;;;;;;23.68;52.98;97187.79;630601;225;64809;-61
2023/05/06 10:13:44;;;;;;;;;;;;;;;23.67;51.99;97192.36;630577;225;67229;-61
2023/05/06 10:16:11;;;;;;;;;;;;;;;23.67;52.40;97192.36;630557;225;66982;-62
2023/05/06 10:18:40;;;;;;;;;;;;;;;23.68;52.61;97185.11;630542;225;65067;-60
2023/05/06 10:21:09;;;;;;;;;;;;;;;23.69;52.73;97192.09;630506;225;63843;-60
2023/05/06 10:23:41;;;;;;;;;;;;;;;23.68;52.84;97198.52;630467;224;65011;-61
2023/05/06 10:26:10;;;;;;;;;;;;;;;23.67;52.60;97189.68;630503;225;63010;-61
2023/05/06 10:28:39;;;;;;;;;;;;;;;23.66;52.82;97193.45;630543;225;67040;-61
2023/05/06 10:31:14;;;;;;;;;;;;;;;23.67;51.54;97195.05;630510;225;67044;-61
2023/05/06 10:33:43;;;;;;;;;;;;;;;23.67;52.49;97195.05;630555;225;62989;-61
2023/05/06 10:36:12;;;;;;;;;;;;;;;23.68;52.74;97193.16;630534;225;64959;-61
2023/05/06 10:38:41;;;;;;;;;;;;;;;23.67;53.23;97197.73;630574;225;64862;-60
2023/05/06 10:41:09;;;;;;;;;;;;;;;23.67;52.62;97200.41;630531;225;65025;-60
2023/05/06 10:43:40;;;;;;;;;;;;;;;23.66;54.24;97195.34;630542;225;67166;-60
2023/05/06 10:46:12;;;;;;;;;;;;;;;23.66;53.84;97201.51;630547;225;67364;-60
2023/05/06 10:48:41;;;;;;;;;;;;;;;23.66;53.51;97196.14;630561;225;65113;-60
2023/05/06 10:51:10;;;;;;;;;;;;;;;23.65;53.56;97197.23;629800;225;64835;-60
2023/05/06 10:53:58;;;;;;;;;;;;;;;23.66;52.22;97204.19;629846;225;64767;-60
2023/05/06 10:56:26;;;;;;;;;;;;;;;23.66;53.31;97198.83;630534;225;65004;-60
2023/05/06 10:58:54;;;;;;;;;;;;;;;23.65;52.77;97199.92;630540;225;67208;-60
2023/05/06 11:01:23;;;;;;;;;;;;;;;23.64;51.53;97203.67;630545;225;64946;-60
2023/05/06 11:03:50;;;;;;;;;;;;;;;23.64;52.26;97203.67;630565;225;64991;-60
2023/05/06 11:06:34;;;;;;;;;;;;;;;23.64;51.82;97203.67;630581;225;64687;-60
2023/05/06 11:09:03;;;;;;;;;;;;;;;23.64;52.11;97203.67;630543;224;65088;-60
2023/05/06 11:11:47;;;;;;;;;;;;;;;23.65;53.04;97215.19;630550;225;65052;-62
2023/05/06 11:14:15;;;;;;;;;;;;;;;23.64;53.08;97209.03;630561;225;67493;-60
2023/05/06 11:16:47;;;;;;;;;;;;;;;23.64;53.19;97206.34;630574;225;67223;-60
2023/05/06 11:19:19;;;;;;;;;;;;;;;23.65;52.76;97207.14;630513;225;65434;-60
2023/05/06 11:21:46;;;;;;;;;;;;;;;23.65;53.04;97209.83;630481;224;67197;-61
2023/05/06 11:24:14;;;;;;;;;;;;;;;23.64;52.79;97202.88;630613;225;67040;-60
2023/05/06 11:26:42;;;;;;;;;;;;;;;23.64;53.02;97210.92;630536;225;65264;-61
2023/05/06 11:29:10;;;;;;;;;;;;;;;23.63;51.66;97202.08;630580;225;67144;-61
2023/05/06 11:31:41;;;;;;;;;;;;;;;23.64;53.29;97203.67;630497;225;64917;-61
2023/05/06 11:34:10;;;;;;;;;;;;;;;23.63;52.65;97196.71;630543;225;65053;-61
2023/05/06 11:36:38;;;;;;;;;;;;;;;23.63;53.05;97191.34;630546;225;67247;-61
2023/05/06 11:39:09;;;;;;;;;;;;;;;23.63;52.61;97204.76;630363;224;67078;-61
2023/05/06 11:41:40;;;;;;;;;;;;;;;23.61;52.75;97195.39;630551;225;65051;-61
2023/05/06 11:44:13;;;;;;;;;;;;;;;23.61;52.87;97190.82;630540;225;67346;-60
2023/05/06 11:46:38;;;;;;;;;;;;;;;23.62;52.39;97196.98;630323;224;66906;-61
2023/05/06 11:49:05;;;;;;;;;;;;;;;23.61;53.13;97193.50;630542;225;64983;-60
2023/05/06 11:51:33;;;;;;;;;;;;;;;23.60;52.95;97191.92;630607;224;67155;-61
2023/05/06 11:54:05;;;;;;;;;;;;;;;23.60;53.01;97194.60;630561;225;66748;-58
2023/05/06 11:56:46;;;;;;;;;;;;;;;23.60;52.70;97186.55;630342;224;65057;-59
2023/05/06 11:59:13;;;;;;;;;;;;;;;23.60;52.66;97186.55;630529;225;67253;-58
2023/05/06 12:01:42;;;;;;;;;;;;;;;23.59;52.33;97195.66;630508;224;67166;-59
2023/05/06 12:04:10;;;;;;;;;;;;;;;23.60;52.79;97185.73;630589;225;62956;-58
2023/05/06 12:06:38;;;;;;;;;;;;;;;23.60;53.56;97191.92;630537;225;67133;-59
2023/05/06 12:09:07;;;;;;;;;;;;;;;23.60;51.46;97191.09;630463;224;67063;-59
2023/05/06 12:11:35;;;;;;;;;;;;;;;23.59;53.29;97190.30;630544;225;65051;-59
2023/05/06 12:14:04;;;;;;;;;;;;;;;23.58;53.48;97186.03;630537;225;65102;-59
2023/05/06 12:16:31;;;;;;;;;;;;;;;23.58;53.35;97194.08;630519;225;64862;-59
2023/05/06 12:18:59;;;;;;;;;;;;;;;23.58;53.59;97186.03;630615;225;62956;-59
2023/05/06 12:21:27;;;;;;;;;;;;;;;23.58;53.13;97187.91;630554;225;64621;-59
2023/05/06 12:23:55;;;;;;;;;;;;;;;23.58;52.60;97191.39;630515;225;66983;-59
2023/05/06 12:26:23;;;;;;;;;;;;;;;23.58;52.42;97182.55;630521;225;65051;-59
2023/05/06 12:29:07;;;;;;;;;;;;;;;23.56;53.42;97182.82;630534;225;67405;-59
2023/05/06 12:31:34;;;;;;;;;;;;;;;23.56;52.69;97184.71;630580;225;67060;-59
2023/05/06 12:34:02;;;;;;;;;;;;;;;23.57;53.79;97189.80;630543;225;62919;-59
2023/05/06 12:36:31;;;;;;;;;;;;;;;23.56;54.15;97182.82;630496;225;64873;-59
2023/05/06 12:39:00;;;;;;;;;;;;;;;23.54;51.87;97181.50;630528;225;67066;-59
2023/05/06 12:41:41;;;;;;;;;;;;;;;23.55;53.85;97180.44;630385;225;65256;-59
2023/05/06 12:44:27;;;;;;;;;;;;;;;23.54;53.79;97176.93;630595;225;66814;-59
2023/05/06 12:46:54;;;;;;;;;;;;;;;23.55;54.07;97183.13;630607;225;66908;-59
2023/05/06 12:49:26;;;;;;;;;;;;;;;23.53;53.91;97183.39;630645;225;65053;-59
2023/05/06 12:51:57;;;;;;;;;;;;;;;23.52;52.65;97173.76;630558;225;67000;-59
2023/05/06 12:54:32;;;;;;;;;;;;;;;23.53;52.52;97175.34;629454;224;66807;-59